sensor_id;sensor_type;location;lat;lon;timestamp;temperature;humidity
66835;HTU21D;53743;51.100;5.874;2023-07-13T00:00:27;18.41;58.54
66835;HTU21D;53743;51.100;5.874;2023-07-13T00:01:29;18.41;58.67
66835;HTU21D;53743;51.100;5.874;2023-07-13T00:02:31;18.39;58.66
66835;HTU21D;53743;51.100;5.874;2023-07-13T00:03:33;18.41;58.82
66835;HTU21D;53743;51.100;5.874;2023-07-13T00:04:35;18.40;58.84
66835;HTU21D;53743;51.100;5.874;2023-07-13T00:05:36;18.39;58.90
66835;HTU21D;53743;51.100;5.874;2023-07-13T00:06:39;18.37;59.25
66835;HTU21D;53743;51.100;5.874;2023-07-13T00:07:40;18.35;59.18
66835;HTU21D;53743;51.100;5.874;2023-07-13T00:08:42;18.34;59.36
66835;HTU21D;53743;51.100;5.874;2023-07-13T00:09:43;18.33;59.36
66835;HTU21D;53743;51.100;5.874;2023-07-13T00:10:46;18.30;59.43
66835;HTU21D;53743;51.100;5.874;2023-07-13T00:11:51;18.28;59.45
66835;HTU21D;53743;51.100;5.874;2023-07-13T00:12:56;18.27;59.70
66835;HTU21D;53743;51.100;5.874;2023-07-13T00:13:58;18.26;59.67
66835;HTU21D;53743;51.100;5.874;2023-07-13T00:15:03;18.23;59.78
66835;HTU21D;53743;51.100;5.874;2023-07-13T00:16:09;18.22;59.75
66835;HTU21D;53743;51.100;5.874;2023-07-13T00:17:14;18.22;59.92
66835;HTU21D;53743;51.100;5.874;2023-07-13T00:18:15;18.20;60.18
66835;HTU21D;53743;51.100;5.874;2023-07-13T00:19:17;18.15;60.15
66835;HTU21D;53743;51.100;5.874;2023-07-13T00:20:19;18.13;60.51
66835;HTU21D;53743;51.100;5.874;2023-07-13T00:21:22;18.11;60.49
66835;HTU21D;53743;51.100;5.874;2023-07-13T00:22:24;18.12;60.41
66835;HTU21D;53743;51.100;5.874;2023-07-13T00:23:27;18.11;60.38
66835;HTU21D;53743;51.100;5.874;2023-07-13T00:24:28;18.09;60.51
66835;HTU21D;53743;51.100;5.874;2023-07-13T00:25:30;18.09;60.39
66835;HTU21D;53743;51.100;5.874;2023-07-13T00:26:32;18.07;60.41
66835;HTU21D;53743;51.100;5.874;2023-07-13T00:27:35;18.08;60.41
66835;HTU21D;53743;51.100;5.874;2023-07-13T00:28:36;18.05;60.65
66835;HTU21D;53743;51.100;5.874;2023-07-13T00:29:40;18.04;60.64
66835;HTU21D;53743;51.100;5.874;2023-07-13T00:30:41;18.00;61.15
66835;HTU21D;53743;51.100;5.874;2023-07-13T00:31:45;17.98;60.91
66835;HTU21D;53743;51.100;5.874;2023-07-13T00:32:47;17.98;61.10
66835;HTU21D;53743;51.100;5.874;2023-07-13T00:33:49;17.98;61.26
66835;HTU21D;53743;51.100;5.874;2023-07-13T00:34:51;17.98;61.31
66835;HTU21D;53743;51.100;5.874;2023-07-13T00:35:54;17.98;61.31
66835;HTU21D;53743;51.100;5.874;2023-07-13T00:36:56;17.96;61.65
66835;HTU21D;53743;51.100;5.874;2023-07-13T00:37:58;17.95;61.40
66835;HTU21D;53743;51.100;5.874;2023-07-13T00:39:00;17.94;61.57
66835;HTU21D;53743;51.100;5.874;2023-07-13T00:40:03;17.94;61.65
66835;HTU21D;53743;51.100;5.874;2023-07-13T00:41:06;17.94;61.52
66835;HTU21D;53743;51.100;5.874;2023-07-13T00:42:08;17.95;61.62
66835;HTU21D;53743;51.100;5.874;2023-07-13T00:43:13;17.94;61.71
66835;HTU21D;53743;51.100;5.874;2023-07-13T00:44:19;17.92;61.83
66835;HTU21D;53743;51.100;5.874;2023-07-13T00:47:13;17.90;61.79
66835;HTU21D;53743;51.100;5.874;2023-07-13T00:48:19;17.92;61.86
66835;HTU21D;53743;51.100;5.874;2023-07-13T00:49:23;17.91;61.92
66835;HTU21D;53743;51.100;5.874;2023-07-13T00:50:27;17.91;62.02
66835;HTU21D;53743;51.100;5.874;2023-07-13T00:51:34;17.93;62.21
66835;HTU21D;53743;51.100;5.874;2023-07-13T00:52:48;17.91;62.32
66835;HTU21D;53743;51.100;5.874;2023-07-13T00:53:57;17.92;62.56
66835;HTU21D;53743;51.100;5.874;2023-07-13T00:55:03;17.88;63.08
66835;HTU21D;53743;51.100;5.874;2023-07-13T00:56:06;17.87;62.76
66835;HTU21D;53743;51.100;5.874;2023-07-13T00:57:12;17.87;62.61
66835;HTU21D;53743;51.100;5.874;2023-07-13T00:58:18;17.83;62.60
66835;HTU21D;53743;51.100;5.874;2023-07-13T00:59:21;17.85;62.63
66835;HTU21D;53743;51.100;5.874;2023-07-13T01:00:25;17.83;62.79
66835;HTU21D;53743;51.100;5.874;2023-07-13T01:01:29;17.83;62.99
66835;HTU21D;53743;51.100;5.874;2023-07-13T01:02:34;17.82;63.08
66835;HTU21D;53743;51.100;5.874;2023-07-13T01:03:38;17.80;63.26
66835;HTU21D;53743;51.100;5.874;2023-07-13T01:04:41;17.81;63.15
66835;HTU21D;53743;51.100;5.874;2023-07-13T01:05:48;17.79;63.47
66835;HTU21D;53743;51.100;5.874;2023-07-13T01:06:52;17.79;64.38
66835;HTU21D;53743;51.100;5.874;2023-07-13T01:07:55;17.74;63.85
66835;HTU21D;53743;51.100;5.874;2023-07-13T01:08:59;17.74;63.72
66835;HTU21D;53743;51.100;5.874;2023-07-13T01:10:01;17.74;63.74
66835;HTU21D;53743;51.100;5.874;2023-07-13T01:11:04;17.73;63.80
66835;HTU21D;53743;51.100;5.874;2023-07-13T01:12:06;17.74;63.92
66835;HTU21D;53743;51.100;5.874;2023-07-13T01:13:10;17.73;63.95
66835;HTU21D;53743;51.100;5.874;2023-07-13T01:14:11;17.69;64.18
66835;HTU21D;53743;51.100;5.874;2023-07-13T01:15:35;17.69;63.95
66835;HTU21D;53743;51.100;5.874;2023-07-13T01:16:42;17.72;63.85
66835;HTU21D;53743;51.100;5.874;2023-07-13T01:17:47;17.70;64.43
66835;HTU21D;53743;51.100;5.874;2023-07-13T01:18:48;17.70;63.99
66835;HTU21D;53743;51.100;5.874;2023-07-13T01:19:50;17.70;64.18
66835;HTU21D;53743;51.100;5.874;2023-07-13T01:20:55;17.72;64.05
66835;HTU21D;53743;51.100;5.874;2023-07-13T01:21:58;17.69;64.04
66835;HTU21D;53743;51.100;5.874;2023-07-13T01:22:59;17.68;64.20
66835;HTU21D;53743;51.100;5.874;2023-07-13T01:24:04;17.66;64.21
66835;HTU21D;53743;51.100;5.874;2023-07-13T01:25:06;17.67;64.32
66835;HTU21D;53743;51.100;5.874;2023-07-13T01:26:09;17.63;64.43
66835;HTU21D;53743;51.100;5.874;2023-07-13T01:27:14;17.65;64.56
66835;HTU21D;53743;51.100;5.874;2023-07-13T01:28:19;17.63;64.83
66835;HTU21D;53743;51.100;5.874;2023-07-13T01:29:20;17.62;65.48
66835;HTU21D;53743;51.100;5.874;2023-07-13T01:30:23;17.56;65.69
66835;HTU21D;53743;51.100;5.874;2023-07-13T01:31:25;17.54;66.05
66835;HTU21D;53743;51.100;5.874;2023-07-13T01:32:28;17.54;64.74
66835;HTU21D;53743;51.100;5.874;2023-07-13T01:33:30;17.55;64.66
66835;HTU21D;53743;51.100;5.874;2023-07-13T01:34:32;17.54;65.51
66835;HTU21D;53743;51.100;5.874;2023-07-13T01:35:34;17.55;64.92
66835;HTU21D;53743;51.100;5.874;2023-07-13T01:36:37;17.52;65.25
66835;HTU21D;53743;51.100;5.874;2023-07-13T01:37:40;17.52;65.53
66835;HTU21D;53743;51.100;5.874;2023-07-13T01:38:42;17.45;66.64
66835;HTU21D;53743;51.100;5.874;2023-07-13T01:39:43;17.46;65.86
66835;HTU21D;53743;51.100;5.874;2023-07-13T01:40:46;17.45;65.74
66835;HTU21D;53743;51.100;5.874;2023-07-13T01:41:47;17.47;66.51
66835;HTU21D;53743;51.100;5.874;2023-07-13T01:42:49;17.48;65.68
66835;HTU21D;53743;51.100;5.874;2023-07-13T01:43:50;17.46;66.08
66835;HTU21D;53743;51.100;5.874;2023-07-13T01:44:52;17.41;65.95
66835;HTU21D;53743;51.100;5.874;2023-07-13T01:45:54;17.39;66.10
66835;HTU21D;53743;51.100;5.874;2023-07-13T01:46:56;17.38;67.06
66835;HTU21D;53743;51.100;5.874;2023-07-13T01:47:58;17.34;66.56
66835;HTU21D;53743;51.100;5.874;2023-07-13T01:48:59;17.36;67.81
66835;HTU21D;53743;51.100;5.874;2023-07-13T01:50:03;17.35;66.43
66835;HTU21D;53743;51.100;5.874;2023-07-13T01:51:05;17.32;66.72
66835;HTU21D;53743;51.100;5.874;2023-07-13T01:52:08;17.29;67.62
66835;HTU21D;53743;51.100;5.874;2023-07-13T01:53:11;17.24;68.42
66835;HTU21D;53743;51.100;5.874;2023-07-13T01:54:13;17.23;68.87
66835;HTU21D;53743;51.100;5.874;2023-07-13T01:55:16;17.23;67.84
66835;HTU21D;53743;51.100;5.874;2023-07-13T01:56:17;17.25;67.40
66835;HTU21D;53743;51.100;5.874;2023-07-13T01:57:18;17.20;69.11
66835;HTU21D;53743;51.100;5.874;2023-07-13T01:58:21;17.18;67.92
66835;HTU21D;53743;51.100;5.874;2023-07-13T01:59:22;17.17;68.12
66835;HTU21D;53743;51.100;5.874;2023-07-13T02:00:24;17.11;70.52
66835;HTU21D;53743;51.100;5.874;2023-07-13T02:01:25;17.15;68.80
66835;HTU21D;53743;51.100;5.874;2023-07-13T02:02:28;17.15;68.75
66835;HTU21D;53743;51.100;5.874;2023-07-13T02:03:30;17.15;68.59
66835;HTU21D;53743;51.100;5.874;2023-07-13T02:04:33;17.14;68.89
66835;HTU21D;53743;51.100;5.874;2023-07-13T02:05:35;17.11;68.85
66835;HTU21D;53743;51.100;5.874;2023-07-13T02:06:37;17.11;69.13
66835;HTU21D;53743;51.100;5.874;2023-07-13T02:07:41;17.08;70.09
66835;HTU21D;53743;51.100;5.874;2023-07-13T02:08:43;17.07;69.36
66835;HTU21D;53743;51.100;5.874;2023-07-13T02:09:45;17.06;69.18
66835;HTU21D;53743;51.100;5.874;2023-07-13T02:10:47;17.09;69.43
66835;HTU21D;53743;51.100;5.874;2023-07-13T02:11:49;17.09;69.00
66835;HTU21D;53743;51.100;5.874;2023-07-13T02:12:51;17.09;69.01
66835;HTU21D;53743;51.100;5.874;2023-07-13T02:13:52;17.11;68.82
66835;HTU21D;53743;51.100;5.874;2023-07-13T02:14:55;17.14;68.97
66835;HTU21D;53743;51.100;5.874;2023-07-13T02:15:56;17.13;68.93
66835;HTU21D;53743;51.100;5.874;2023-07-13T02:16:58;17.14;69.76
66835;HTU21D;53743;51.100;5.874;2023-07-13T02:17:59;17.13;68.79
66835;HTU21D;53743;51.100;5.874;2023-07-13T02:19:02;17.11;68.96
66835;HTU21D;53743;51.100;5.874;2023-07-13T02:20:05;17.09;69.23
66835;HTU21D;53743;51.100;5.874;2023-07-13T02:21:07;17.08;69.14
66835;HTU21D;53743;51.100;5.874;2023-07-13T02:22:09;17.10;69.98
66835;HTU21D;53743;51.100;5.874;2023-07-13T02:23:12;17.10;69.25
66835;HTU21D;53743;51.100;5.874;2023-07-13T02:24:14;17.08;70.48
66835;HTU21D;53743;51.100;5.874;2023-07-13T02:25:18;17.10;69.53
66835;HTU21D;53743;51.100;5.874;2023-07-13T02:26:20;17.09;70.64
66835;HTU21D;53743;51.100;5.874;2023-07-13T02:27:22;17.10;69.37
66835;HTU21D;53743;51.100;5.874;2023-07-13T02:28:24;17.10;69.33
66835;HTU21D;53743;51.100;5.874;2023-07-13T02:29:25;17.08;69.78
66835;HTU21D;53743;51.100;5.874;2023-07-13T02:30:28;17.06;69.36
66835;HTU21D;53743;51.100;5.874;2023-07-13T02:31:30;17.04;70.14
66835;HTU21D;53743;51.100;5.874;2023-07-13T02:32:32;17.04;69.86
66835;HTU21D;53743;51.100;5.874;2023-07-13T02:33:34;17.05;69.94
66835;HTU21D;53743;51.100;5.874;2023-07-13T02:34:37;17.04;69.83
66835;HTU21D;53743;51.100;5.874;2023-07-13T02:35:39;17.04;70.00
66835;HTU21D;53743;51.100;5.874;2023-07-13T02:36:41;17.03;70.40
66835;HTU21D;53743;51.100;5.874;2023-07-13T02:37:42;17.03;70.07
66835;HTU21D;53743;51.100;5.874;2023-07-13T02:38:49;17.01;69.97
66835;HTU21D;53743;51.100;5.874;2023-07-13T02:39:50;16.99;70.19
66835;HTU21D;53743;51.100;5.874;2023-07-13T02:40:53;16.96;70.31
66835;HTU21D;53743;51.100;5.874;2023-07-13T02:41:54;16.96;70.40
66835;HTU21D;53743;51.100;5.874;2023-07-13T02:42:56;16.99;70.61
66835;HTU21D;53743;51.100;5.874;2023-07-13T02:43:58;16.95;70.58
66835;HTU21D;53743;51.100;5.874;2023-07-13T02:45:04;16.95;70.93
66835;HTU21D;53743;51.100;5.874;2023-07-13T02:46:08;16.94;70.78
66835;HTU21D;53743;51.100;5.874;2023-07-13T02:47:10;16.94;70.68
66835;HTU21D;53743;51.100;5.874;2023-07-13T02:48:14;16.93;70.64
66835;HTU21D;53743;51.100;5.874;2023-07-13T02:49:15;16.93;70.76
66835;HTU21D;53743;51.100;5.874;2023-07-13T02:50:17;16.93;70.78
66835;HTU21D;53743;51.100;5.874;2023-07-13T02:51:19;16.93;70.90
66835;HTU21D;53743;51.100;5.874;2023-07-13T02:52:21;16.93;70.96
66835;HTU21D;53743;51.100;5.874;2023-07-13T02:53:22;16.94;71.10
66835;HTU21D;53743;51.100;5.874;2023-07-13T02:54:26;16.90;71.32
66835;HTU21D;53743;51.100;5.874;2023-07-13T02:55:27;16.91;71.03
66835;HTU21D;53743;51.100;5.874;2023-07-13T02:56:31;16.87;71.66
66835;HTU21D;53743;51.100;5.874;2023-07-13T02:57:33;16.87;71.41
66835;HTU21D;53743;51.100;5.874;2023-07-13T02:58:36;16.87;71.34
66835;HTU21D;53743;51.100;5.874;2023-07-13T02:59:39;16.87;71.29
66835;HTU21D;53743;51.100;5.874;2023-07-13T03:00:41;16.86;71.35
66835;HTU21D;53743;51.100;5.874;2023-07-13T03:01:43;16.86;71.42
66835;HTU21D;53743;51.100;5.874;2023-07-13T03:02:45;16.86;71.55
66835;HTU21D;53743;51.100;5.874;2023-07-13T03:03:49;16.86;71.96
66835;HTU21D;53743;51.100;5.874;2023-07-13T03:04:52;16.85;71.93
66835;HTU21D;53743;51.100;5.874;2023-07-13T03:05:59;16.85;72.06
66835;HTU21D;53743;51.100;5.874;2023-07-13T03:07:08;16.81;72.48
66835;HTU21D;53743;51.100;5.874;2023-07-13T03:08:12;16.79;72.41
66835;HTU21D;53743;51.100;5.874;2023-07-13T03:09:16;16.77;72.57
66835;HTU21D;53743;51.100;5.874;2023-07-13T03:10:24;16.75;73.48
66835;HTU21D;53743;51.100;5.874;2023-07-13T03:11:27;16.73;73.16
66835;HTU21D;53743;51.100;5.874;2023-07-13T03:12:36;16.73;73.35
66835;HTU21D;53743;51.100;5.874;2023-07-13T03:13:42;16.72;72.75
66835;HTU21D;53743;51.100;5.874;2023-07-13T03:14:44;16.73;73.12
66835;HTU21D;53743;51.100;5.874;2023-07-13T03:15:48;16.75;72.61
66835;HTU21D;53743;51.100;5.874;2023-07-13T03:16:50;16.72;73.50
66835;HTU21D;53743;51.100;5.874;2023-07-13T03:17:53;16.74;73.25
66835;HTU21D;53743;51.100;5.874;2023-07-13T03:18:54;16.74;73.20
66835;HTU21D;53743;51.100;5.874;2023-07-13T03:19:57;16.73;73.02
66835;HTU21D;53743;51.100;5.874;2023-07-13T03:20:59;16.67;73.13
66835;HTU21D;53743;51.100;5.874;2023-07-13T03:22:00;16.65;73.54
66835;HTU21D;53743;51.100;5.874;2023-07-13T03:23:04;16.65;73.48
66835;HTU21D;53743;51.100;5.874;2023-07-13T03:24:06;16.62;73.71
66835;HTU21D;53743;51.100;5.874;2023-07-13T03:25:09;16.65;73.32
66835;HTU21D;53743;51.100;5.874;2023-07-13T03:26:15;16.64;74.12
66835;HTU21D;53743;51.100;5.874;2023-07-13T03:27:19;16.64;73.39
66835;HTU21D;53743;51.100;5.874;2023-07-13T03:28:22;16.64;73.70
66835;HTU21D;53743;51.100;5.874;2023-07-13T03:29:25;16.65;74.55
66835;HTU21D;53743;51.100;5.874;2023-07-13T03:30:26;16.64;75.07
66835;HTU21D;53743;51.100;5.874;2023-07-13T03:31:32;16.67;73.91
66835;HTU21D;53743;51.100;5.874;2023-07-13T03:32:35;16.66;74.03
66835;HTU21D;53743;51.100;5.874;2023-07-13T03:33:38;16.66;74.27
66835;HTU21D;53743;51.100;5.874;2023-07-13T03:34:40;16.65;74.31
66835;HTU21D;53743;51.100;5.874;2023-07-13T03:35:42;16.64;74.24
66835;HTU21D;53743;51.100;5.874;2023-07-13T03:36:44;16.64;73.91
66835;HTU21D;53743;51.100;5.874;2023-07-13T03:37:47;16.63;74.57
66835;HTU21D;53743;51.100;5.874;2023-07-13T03:38:54;16.61;74.64
66835;HTU21D;53743;51.100;5.874;2023-07-13T03:40:01;16.62;75.54
66835;HTU21D;53743;51.100;5.874;2023-07-13T03:41:04;16.60;74.72
66835;HTU21D;53743;51.100;5.874;2023-07-13T03:42:08;16.60;75.79
66835;HTU21D;53743;51.100;5.874;2023-07-13T03:43:09;16.61;74.70
66835;HTU21D;53743;51.100;5.874;2023-07-13T03:44:12;16.64;76.06
66835;HTU21D;53743;51.100;5.874;2023-07-13T03:45:13;16.59;76.79
66835;HTU21D;53743;51.100;5.874;2023-07-13T03:46:17;16.55;75.45
66835;HTU21D;53743;51.100;5.874;2023-07-13T03:47:19;16.61;74.86
66835;HTU21D;53743;51.100;5.874;2023-07-13T03:48:21;16.62;75.28
66835;HTU21D;53743;51.100;5.874;2023-07-13T03:49:23;16.63;74.86
66835;HTU21D;53743;51.100;5.874;2023-07-13T03:50:25;16.64;74.96
66835;HTU21D;53743;51.100;5.874;2023-07-13T03:51:26;16.62;75.27
66835;HTU21D;53743;51.100;5.874;2023-07-13T03:52:29;16.64;75.02
66835;HTU21D;53743;51.100;5.874;2023-07-13T03:53:30;16.64;76.24
66835;HTU21D;53743;51.100;5.874;2023-07-13T03:54:33;16.64;75.20
66835;HTU21D;53743;51.100;5.874;2023-07-13T03:55:35;16.64;75.11
66835;HTU21D;53743;51.100;5.874;2023-07-13T03:56:38;16.66;75.42
66835;HTU21D;53743;51.100;5.874;2023-07-13T03:57:42;16.65;75.10
66835;HTU21D;53743;51.100;5.874;2023-07-13T03:58:47;16.65;75.50
66835;HTU21D;53743;51.100;5.874;2023-07-13T03:59:52;16.65;75.74
66835;HTU21D;53743;51.100;5.874;2023-07-13T04:00:56;16.64;75.52
66835;HTU21D;53743;51.100;5.874;2023-07-13T04:01:57;16.63;76.39
66835;HTU21D;53743;51.100;5.874;2023-07-13T04:03:00;16.64;76.35
66835;HTU21D;53743;51.100;5.874;2023-07-13T04:04:01;16.65;76.02
66835;HTU21D;53743;51.100;5.874;2023-07-13T04:05:05;16.64;76.37
66835;HTU21D;53743;51.100;5.874;2023-07-13T04:06:14;16.60;77.19
66835;HTU21D;53743;51.100;5.874;2023-07-13T04:07:21;16.58;77.33
66835;HTU21D;53743;51.100;5.874;2023-07-13T04:08:23;16.62;76.61
66835;HTU21D;53743;51.100;5.874;2023-07-13T04:09:25;16.67;76.53
66835;HTU21D;53743;51.100;5.874;2023-07-13T04:10:26;16.70;76.89
66835;HTU21D;53743;51.100;5.874;2023-07-13T04:11:30;16.75;75.52
66835;HTU21D;53743;51.100;5.874;2023-07-13T04:12:34;16.77;75.31
66835;HTU21D;53743;51.100;5.874;2023-07-13T04:13:38;16.77;75.49
66835;HTU21D;53743;51.100;5.874;2023-07-13T04:14:39;16.79;75.38
66835;HTU21D;53743;51.100;5.874;2023-07-13T04:15:41;16.78;75.86
66835;HTU21D;53743;51.100;5.874;2023-07-13T04:16:42;16.80;75.34
66835;HTU21D;53743;51.100;5.874;2023-07-13T04:17:46;16.85;75.38
66835;HTU21D;53743;51.100;5.874;2023-07-13T04:18:48;16.85;76.47
66835;HTU21D;53743;51.100;5.874;2023-07-13T04:19:50;16.86;75.46
66835;HTU21D;53743;51.100;5.874;2023-07-13T04:20:52;16.87;75.28
66835;HTU21D;53743;51.100;5.874;2023-07-13T04:21:54;16.92;75.38
66835;HTU21D;53743;51.100;5.874;2023-07-13T04:22:55;16.94;75.43
66835;HTU21D;53743;51.100;5.874;2023-07-13T04:23:58;16.98;75.27
66835;HTU21D;53743;51.100;5.874;2023-07-13T04:24:59;16.96;75.34
66835;HTU21D;53743;51.100;5.874;2023-07-13T04:26:02;16.98;75.38
66835;HTU21D;53743;51.100;5.874;2023-07-13T04:27:04;16.96;75.28
66835;HTU21D;53743;51.100;5.874;2023-07-13T04:28:06;17.00;75.28
66835;HTU21D;53743;51.100;5.874;2023-07-13T04:29:09;17.03;75.33
66835;HTU21D;53743;51.100;5.874;2023-07-13T04:30:12;17.01;75.82
66835;HTU21D;53743;51.100;5.874;2023-07-13T04:31:13;17.01;75.57
66835;HTU21D;53743;51.100;5.874;2023-07-13T04:32:16;17.04;75.73
66835;HTU21D;53743;51.100;5.874;2023-07-13T04:33:18;17.06;75.12
66835;HTU21D;53743;51.100;5.874;2023-07-13T04:34:22;17.14;75.15
66835;HTU21D;53743;51.100;5.874;2023-07-13T04:35:25;17.16;75.97
66835;HTU21D;53743;51.100;5.874;2023-07-13T04:36:27;17.14;75.58
66835;HTU21D;53743;51.100;5.874;2023-07-13T04:37:29;17.18;74.99
66835;HTU21D;53743;51.100;5.874;2023-07-13T04:38:32;17.21;75.15
66835;HTU21D;53743;51.100;5.874;2023-07-13T04:39:34;17.23;75.32
66835;HTU21D;53743;51.100;5.874;2023-07-13T04:40:36;17.30;75.50
66835;HTU21D;53743;51.100;5.874;2023-07-13T04:41:38;17.25;75.74
66835;HTU21D;53743;51.100;5.874;2023-07-13T04:42:40;17.26;75.31
66835;HTU21D;53743;51.100;5.874;2023-07-13T04:43:41;17.30;75.10
66835;HTU21D;53743;51.100;5.874;2023-07-13T04:44:48;17.30;75.06
66835;HTU21D;53743;51.100;5.874;2023-07-13T04:45:52;17.30;75.64
66835;HTU21D;53743;51.100;5.874;2023-07-13T04:46:53;17.31;75.32
66835;HTU21D;53743;51.100;5.874;2023-07-13T04:47:56;17.36;75.21
66835;HTU21D;53743;51.100;5.874;2023-07-13T04:48:57;17.39;75.01
66835;HTU21D;53743;51.100;5.874;2023-07-13T04:49:59;17.46;75.10
66835;HTU21D;53743;51.100;5.874;2023-07-13T04:51:01;17.52;75.67
66835;HTU21D;53743;51.100;5.874;2023-07-13T04:52:04;17.56;74.62
66835;HTU21D;53743;51.100;5.874;2023-07-13T04:53:08;17.63;74.72
66835;HTU21D;53743;51.100;5.874;2023-07-13T04:54:11;17.69;74.75
66835;HTU21D;53743;51.100;5.874;2023-07-13T04:55:12;17.76;74.30
66835;HTU21D;53743;51.100;5.874;2023-07-13T04:56:14;17.79;74.25
66835;HTU21D;53743;51.100;5.874;2023-07-13T04:57:15;17.83;74.22
66835;HTU21D;53743;51.100;5.874;2023-07-13T04:58:18;17.91;74.11
66835;HTU21D;53743;51.100;5.874;2023-07-13T04:59:19;17.94;73.83
66835;HTU21D;53743;51.100;5.874;2023-07-13T05:00:23;17.95;73.91
66835;HTU21D;53743;51.100;5.874;2023-07-13T05:01:24;17.98;73.82
66835;HTU21D;53743;51.100;5.874;2023-07-13T05:02:27;18.06;73.30
66835;HTU21D;53743;51.100;5.874;2023-07-13T05:03:29;18.10;73.20
66835;HTU21D;53743;51.100;5.874;2023-07-13T05:04:32;18.11;72.84
66835;HTU21D;53743;51.100;5.874;2023-07-13T05:05:33;18.19;72.77
66835;HTU21D;53743;51.100;5.874;2023-07-13T05:06:35;18.21;73.34
66835;HTU21D;53743;51.100;5.874;2023-07-13T05:07:37;18.26;72.86
66835;HTU21D;53743;51.100;5.874;2023-07-13T05:08:39;18.37;72.32
66835;HTU21D;53743;51.100;5.874;2023-07-13T05:09:41;18.44;72.26
66835;HTU21D;53743;51.100;5.874;2023-07-13T05:10:43;18.53;71.78
66835;HTU21D;53743;51.100;5.874;2023-07-13T05:11:44;18.59;71.53
66835;HTU21D;53743;51.100;5.874;2023-07-13T05:12:46;18.65;71.13
66835;HTU21D;53743;51.100;5.874;2023-07-13T05:13:48;18.69;71.02
66835;HTU21D;53743;51.100;5.874;2023-07-13T05:14:50;18.76;71.58
66835;HTU21D;53743;51.100;5.874;2023-07-13T05:16:00;18.88;70.42
66835;HTU21D;53743;51.100;5.874;2023-07-13T05:17:06;18.99;70.08
66835;HTU21D;53743;51.100;5.874;2023-07-13T05:18:08;19.03;69.97
66835;HTU21D;53743;51.100;5.874;2023-07-13T05:19:11;19.08;69.79
66835;HTU21D;53743;51.100;5.874;2023-07-13T05:20:14;19.10;69.57
66835;HTU21D;53743;51.100;5.874;2023-07-13T05:21:16;19.13;69.44
66835;HTU21D;53743;51.100;5.874;2023-07-13T05:22:17;19.21;69.58
66835;HTU21D;53743;51.100;5.874;2023-07-13T05:23:19;19.33;69.42
66835;HTU21D;53743;51.100;5.874;2023-07-13T05:24:21;19.53;68.91
66835;HTU21D;53743;51.100;5.874;2023-07-13T05:25:23;19.71;68.19
66835;HTU21D;53743;51.100;5.874;2023-07-13T05:26:24;19.83;67.72
66835;HTU21D;53743;51.100;5.874;2023-07-13T05:27:27;19.91;67.47
66835;HTU21D;53743;51.100;5.874;2023-07-13T05:28:30;20.04;67.30
66835;HTU21D;53743;51.100;5.874;2023-07-13T05:29:33;20.14;66.79
66835;HTU21D;53743;51.100;5.874;2023-07-13T05:30:34;20.17;66.47
66835;HTU21D;53743;51.100;5.874;2023-07-13T05:31:38;20.15;66.27
66835;HTU21D;53743;51.100;5.874;2023-07-13T05:32:40;20.05;66.36
66835;HTU21D;53743;51.100;5.874;2023-07-13T05:33:42;20.01;66.56
66835;HTU21D;53743;51.100;5.874;2023-07-13T05:34:43;19.97;66.80
66835;HTU21D;53743;51.100;5.874;2023-07-13T05:35:46;19.86;67.20
66835;HTU21D;53743;51.100;5.874;2023-07-13T05:36:48;19.79;67.45
66835;HTU21D;53743;51.100;5.874;2023-07-13T05:37:50;19.72;67.74
66835;HTU21D;53743;51.100;5.874;2023-07-13T05:38:52;19.65;68.23
66835;HTU21D;53743;51.100;5.874;2023-07-13T05:39:54;19.55;68.39
66835;HTU21D;53743;51.100;5.874;2023-07-13T05:40:57;19.48;68.89
66835;HTU21D;53743;51.100;5.874;2023-07-13T05:41:59;19.41;69.13
66835;HTU21D;53743;51.100;5.874;2023-07-13T05:43:00;19.31;69.90
66835;HTU21D;53743;51.100;5.874;2023-07-13T05:44:03;19.30;69.88
66835;HTU21D;53743;51.100;5.874;2023-07-13T05:45:05;19.25;69.87
66835;HTU21D;53743;51.100;5.874;2023-07-13T05:46:10;19.24;70.09
66835;HTU21D;53743;51.100;5.874;2023-07-13T05:47:13;19.26;70.16
66835;HTU21D;53743;51.100;5.874;2023-07-13T05:48:15;19.27;70.19
66835;HTU21D;53743;51.100;5.874;2023-07-13T05:49:17;19.28;70.19
66835;HTU21D;53743;51.100;5.874;2023-07-13T05:50:18;19.27;70.32
66835;HTU21D;53743;51.100;5.874;2023-07-13T05:51:20;19.27;70.07
66835;HTU21D;53743;51.100;5.874;2023-07-13T05:52:21;19.29;70.04
66835;HTU21D;53743;51.100;5.874;2023-07-13T05:53:24;19.27;70.04
66835;HTU21D;53743;51.100;5.874;2023-07-13T05:54:25;19.29;69.97
66835;HTU21D;53743;51.100;5.874;2023-07-13T05:55:26;19.32;69.88
66835;HTU21D;53743;51.100;5.874;2023-07-13T05:56:28;19.29;69.96
66835;HTU21D;53743;51.100;5.874;2023-07-13T05:57:30;19.30;70.04
66835;HTU21D;53743;51.100;5.874;2023-07-13T05:58:32;19.37;69.83
66835;HTU21D;53743;51.100;5.874;2023-07-13T05:59:35;19.38;70.45
66835;HTU21D;53743;51.100;5.874;2023-07-13T06:00:37;19.44;69.82
66835;HTU21D;53743;51.100;5.874;2023-07-13T06:01:38;19.42;69.87
66835;HTU21D;53743;51.100;5.874;2023-07-13T06:02:42;19.44;69.55
66835;HTU21D;53743;51.100;5.874;2023-07-13T06:03:44;19.48;69.66
66835;HTU21D;53743;51.100;5.874;2023-07-13T06:04:46;19.47;69.51
66835;HTU21D;53743;51.100;5.874;2023-07-13T06:05:47;19.52;69.29
66835;HTU21D;53743;51.100;5.874;2023-07-13T06:06:49;19.48;69.36
66835;HTU21D;53743;51.100;5.874;2023-07-13T06:07:51;19.42;69.81
66835;HTU21D;53743;51.100;5.874;2023-07-13T06:08:53;19.41;69.87
66835;HTU21D;53743;51.100;5.874;2023-07-13T06:09:54;19.38;70.49
66835;HTU21D;53743;51.100;5.874;2023-07-13T06:11:02;19.38;70.04
66835;HTU21D;53743;51.100;5.874;2023-07-13T06:12:05;19.43;70.13
66835;HTU21D;53743;51.100;5.874;2023-07-13T06:13:08;19.51;69.77
66835;HTU21D;53743;51.100;5.874;2023-07-13T06:14:09;19.59;69.57
66835;HTU21D;53743;51.100;5.874;2023-07-13T06:15:12;19.70;69.28
66835;HTU21D;53743;51.100;5.874;2023-07-13T06:16:14;19.76;69.00
66835;HTU21D;53743;51.100;5.874;2023-07-13T06:17:17;19.87;68.82
66835;HTU21D;53743;51.100;5.874;2023-07-13T06:18:20;19.94;68.70
66835;HTU21D;53743;51.100;5.874;2023-07-13T06:19:22;20.04;68.26
66835;HTU21D;53743;51.100;5.874;2023-07-13T06:20:23;20.09;68.01
66835;HTU21D;53743;51.100;5.874;2023-07-13T06:21:26;20.16;67.55
66835;HTU21D;53743;51.100;5.874;2023-07-13T06:22:27;20.22;67.14
66835;HTU21D;53743;51.100;5.874;2023-07-13T06:23:29;20.17;67.83
66835;HTU21D;53743;51.100;5.874;2023-07-13T06:24:31;20.14;67.72
66835;HTU21D;53743;51.100;5.874;2023-07-13T06:25:33;20.14;67.64
66835;HTU21D;53743;51.100;5.874;2023-07-13T06:26:34;20.14;67.75
66835;HTU21D;53743;51.100;5.874;2023-07-13T06:27:37;20.10;67.96
66835;HTU21D;53743;51.100;5.874;2023-07-13T06:28:38;20.05;68.07
66835;HTU21D;53743;51.100;5.874;2023-07-13T06:29:40;20.06;68.19
66835;HTU21D;53743;51.100;5.874;2023-07-13T06:30:41;20.10;68.35
66835;HTU21D;53743;51.100;5.874;2023-07-13T06:31:43;20.18;68.20